sensor_id;sensor_type;location;lat;lon;timestamp;temperature;humidity
70986;DHT22;58645;43.068;25.610;2023-07-29T00:01:40;17.00;88.50
70986;DHT22;58645;43.068;25.610;2023-07-29T00:04:07;16.90;88.80
70986;DHT22;58645;43.068;25.610;2023-07-29T00:06:34;16.80;89.20
70986;DHT22;58645;43.068;25.610;2023-07-29T00:09:00;16.90;90.10
70986;DHT22;58645;43.068;25.610;2023-07-29T00:11:26;16.80;89.60
70986;DHT22;58645;43.068;25.610;2023-07-29T00:13:52;16.70;90.20
70986;DHT22;58645;43.068;25.610;2023-07-29T00:16:18;16.70;90.70
70986;DHT22;58645;43.068;25.610;2023-07-29T00:18:48;16.60;90.80
70986;DHT22;58645;43.068;25.610;2023-07-29T00:21:13;16.60;91.10
70986;DHT22;58645;43.068;25.610;2023-07-29T00:23:39;16.60;91.50
70986;DHT22;58645;43.068;25.610;2023-07-29T00:26:05;16.50;91.90
70986;DHT22;58645;43.068;25.610;2023-07-29T00:28:31;16.50;92.40
70986;DHT22;58645;43.068;25.610;2023-07-29T00:30:57;16.50;92.70
70986;DHT22;58645;43.068;25.610;2023-07-29T00:33:22;16.40;93.10
70986;DHT22;58645;43.068;25.610;2023-07-29T00:35:48;16.40;93.40
70986;DHT22;58645;43.068;25.610;2023-07-29T00:38:14;16.30;93.70
70986;DHT22;58645;43.068;25.610;2023-07-29T00:40:40;16.30;94.10
70986;DHT22;58645;43.068;25.610;2023-07-29T00:43:05;16.30;94.50
70986;DHT22;58645;43.068;25.610;2023-07-29T00:45:32;16.20;94.90
70986;DHT22;58645;43.068;25.610;2023-07-29T00:48:02;16.10;95.60
70986;DHT22;58645;43.068;25.610;2023-07-29T00:50:30;16.10;96.50
70986;DHT22;58645;43.068;25.610;2023-07-29T00:52:56;16.10;97.20
70986;DHT22;58645;43.068;25.610;2023-07-29T00:55:22;16.00;97.90
70986;DHT22;58645;43.068;25.610;2023-07-29T00:57:48;15.90;99.00
70986;DHT22;58645;43.068;25.610;2023-07-29T01:00:17;15.90;99.90
70986;DHT22;58645;43.068;25.610;2023-07-29T01:02:43;15.80;99.90
70986;DHT22;58645;43.068;25.610;2023-07-29T01:05:10;15.80;99.90
70986;DHT22;58645;43.068;25.610;2023-07-29T01:16:02;15.80;99.90
70986;DHT22;58645;43.068;25.610;2023-07-29T01:18:32;15.80;99.90
70986;DHT22;58645;43.068;25.610;2023-07-29T01:21:04;15.80;99.90
70986;DHT22;58645;43.068;25.610;2023-07-29T01:23:31;15.80;99.90
70986;DHT22;58645;43.068;25.610;2023-07-29T01:25:56;15.80;99.90
70986;DHT22;58645;43.068;25.610;2023-07-29T01:28:23;15.90;99.90
70986;DHT22;58645;43.068;25.610;2023-07-29T01:30:51;15.90;99.90
70986;DHT22;58645;43.068;25.610;2023-07-29T01:33:27;15.90;99.90
70986;DHT22;58645;43.068;25.610;2023-07-29T01:36:01;15.90;99.90
70986;DHT22;58645;43.068;25.610;2023-07-29T01:38:38;15.80;99.90
70986;DHT22;58645;43.068;25.610;2023-07-29T01:41:08;15.80;99.90
70986;DHT22;58645;43.068;25.610;2023-07-29T01:43:35;15.70;99.90
70986;DHT22;58645;43.068;25.610;2023-07-29T01:46:07;15.60;99.90
70986;DHT22;58645;43.068;25.610;2023-07-29T01:48:32;15.50;99.90
70986;DHT22;58645;43.068;25.610;2023-07-29T01:50:58;15.50;99.90
70986;DHT22;58645;43.068;25.610;2023-07-29T01:53:24;15.40;99.90
70986;DHT22;58645;43.068;25.610;2023-07-29T01:55:49;15.40;99.90
70986;DHT22;58645;43.068;25.610;2023-07-29T01:58:15;15.30;99.90
70986;DHT22;58645;43.068;25.610;2023-07-29T02:00:41;15.40;99.90
70986;DHT22;58645;43.068;25.610;2023-07-29T02:03:06;15.40;99.90
70986;DHT22;58645;43.068;25.610;2023-07-29T02:05:32;15.40;99.90
70986;DHT22;58645;43.068;25.610;2023-07-29T02:07:58;15.30;99.90
70986;DHT22;58645;43.068;25.610;2023-07-29T02:10:25;15.30;99.90
70986;DHT22;58645;43.068;25.610;2023-07-29T02:12:51;15.30;99.90
70986;DHT22;58645;43.068;25.610;2023-07-29T02:15:17;15.30;99.90
70986;DHT22;58645;43.068;25.610;2023-07-29T02:17:43;15.20;99.90
70986;DHT22;58645;43.068;25.610;2023-07-29T02:20:09;15.30;99.90
70986;DHT22;58645;43.068;25.610;2023-07-29T02:22:36;15.30;99.90
70986;DHT22;58645;43.068;25.610;2023-07-29T02:25:02;15.30;99.90
70986;DHT22;58645;43.068;25.610;2023-07-29T02:27:28;15.20;99.90
70986;DHT22;58645;43.068;25.610;2023-07-29T02:29:54;15.20;99.90
70986;DHT22;58645;43.068;25.610;2023-07-29T02:32:20;15.10;99.90
70986;DHT22;58645;43.068;25.610;2023-07-29T02:34:46;15.10;99.90
70986;DHT22;58645;43.068;25.610;2023-07-29T02:37:12;15.00;99.90
70986;DHT22;58645;43.068;25.610;2023-07-29T02:39:38;14.90;99.90
70986;DHT22;58645;43.068;25.610;2023-07-29T02:42:04;14.90;99.90
70986;DHT22;58645;43.068;25.610;2023-07-29T02:44:29;14.80;99.90
70986;DHT22;58645;43.068;25.610;2023-07-29T02:46:55;14.70;99.90
70986;DHT22;58645;43.068;25.610;2023-07-29T02:49:22;14.70;99.90
70986;DHT22;58645;43.068;25.610;2023-07-29T02:51:48;14.70;99.90
70986;DHT22;58645;43.068;25.610;2023-07-29T02:54:14;14.60;99.90
70986;DHT22;58645;43.068;25.610;2023-07-29T02:56:39;14.60;99.90
70986;DHT22;58645;43.068;25.610;2023-07-29T02:59:05;14.60;99.90
70986;DHT22;58645;43.068;25.610;2023-07-29T03:01:31;14.60;99.90
70986;DHT22;58645;43.068;25.610;2023-07-29T03:03:57;14.60;99.90
70986;DHT22;58645;43.068;25.610;2023-07-29T03:06:23;14.60;99.90
70986;DHT22;58645;43.068;25.610;2023-07-29T03:08:49;14.60;99.90
70986;DHT22;58645;43.068;25.610;2023-07-29T03:11:16;14.60;99.90
70986;DHT22;58645;43.068;25.610;2023-07-29T03:13:42;14.60;99.90
70986;DHT22;58645;43.068;25.610;2023-07-29T03:16:13;14.60;99.90
70986;DHT22;58645;43.068;25.610;2023-07-29T03:18:40;14.60;99.90
70986;DHT22;58645;43.068;25.610;2023-07-29T03:21:06;14.70;99.90
70986;DHT22;58645;43.068;25.610;2023-07-29T03:23:33;14.70;99.90
70986;DHT22;58645;43.068;25.610;2023-07-29T03:25:59;14.80;99.90
70986;DHT22;58645;43.068;25.610;2023-07-29T03:28:27;14.80;99.90
70986;DHT22;58645;43.068;25.610;2023-07-29T03:30:56;14.80;99.90
70986;DHT22;58645;43.068;25.610;2023-07-29T03:33:22;14.90;99.90
70986;DHT22;58645;43.068;25.610;2023-07-29T03:35:48;14.90;99.90
70986;DHT22;58645;43.068;25.610;2023-07-29T03:38:14;14.90;99.90
70986;DHT22;58645;43.068;25.610;2023-07-29T03:40:41;15.00;99.90
70986;DHT22;58645;43.068;25.610;2023-07-29T03:43:07;15.00;99.90
70986;DHT22;58645;43.068;25.610;2023-07-29T03:45:33;15.00;99.90
70986;DHT22;58645;43.068;25.610;2023-07-29T03:48:00;14.90;99.90
70986;DHT22;58645;43.068;25.610;2023-07-29T03:50:26;14.90;99.90
70986;DHT22;58645;43.068;25.610;2023-07-29T03:52:52;14.90;99.90
70986;DHT22;58645;43.068;25.610;2023-07-29T03:55:18;14.90;99.90
70986;DHT22;58645;43.068;25.610;2023-07-29T03:57:44;15.00;99.90
70986;DHT22;58645;43.068;25.610;2023-07-29T04:00:10;15.10;99.90
70986;DHT22;58645;43.068;25.610;2023-07-29T04:02:36;15.20;99.90
70986;DHT22;58645;43.068;25.610;2023-07-29T04:05:05;15.30;99.90
70986;DHT22;58645;43.068;25.610;2023-07-29T04:07:34;15.40;99.90
70986;DHT22;58645;43.068;25.610;2023-07-29T04:10:00;15.50;99.90
70986;DHT22;58645;43.068;25.610;2023-07-29T04:12:26;15.60;99.90
70986;DHT22;58645;43.068;25.610;2023-07-29T04:14:52;15.80;99.90
70986;DHT22;58645;43.068;25.610;2023-07-29T04:17:18;15.90;99.90
70986;DHT22;58645;43.068;25.610;2023-07-29T04:19:43;16.10;99.90
70986;DHT22;58645;43.068;25.610;2023-07-29T04:22:09;16.20;99.90
70986;DHT22;58645;43.068;25.610;2023-07-29T04:24:35;16.30;99.90
70986;DHT22;58645;43.068;25.610;2023-07-29T04:27:01;16.30;99.90
70986;DHT22;58645;43.068;25.610;2023-07-29T04:29:26;16.40;99.90
70986;DHT22;58645;43.068;25.610;2023-07-29T04:31:52;16.60;99.90
70986;DHT22;58645;43.068;25.610;2023-07-29T04:34:18;16.80;99.90
70986;DHT22;58645;43.068;25.610;2023-07-29T04:36:48;16.90;99.90
70986;DHT22;58645;43.068;25.610;2023-07-29T04:39:14;17.00;99.90
70986;DHT22;58645;43.068;25.610;2023-07-29T04:41:40;17.10;99.90
70986;DHT22;58645;43.068;25.610;2023-07-29T04:44:06;17.30;99.90
70986;DHT22;58645;43.068;25.610;2023-07-29T04:46:32;17.40;99.90
70986;DHT22;58645;43.068;25.610;2023-07-29T04:48:57;17.60;99.90
70986;DHT22;58645;43.068;25.610;2023-07-29T04:51:24;17.80;99.90
70986;DHT22;58645;43.068;25.610;2023-07-29T04:53:49;18.00;99.90
70986;DHT22;58645;43.068;25.610;2023-07-29T04:56:15;18.30;99.90
70986;DHT22;58645;43.068;25.610;2023-07-29T04:58:41;18.50;99.90
70986;DHT22;58645;43.068;25.610;2023-07-29T05:01:07;18.60;99.60
70986;DHT22;58645;43.068;25.610;2023-07-29T05:03:32;18.80;97.90
70986;DHT22;58645;43.068;25.610;2023-07-29T05:05:59;19.00;97.00
70986;DHT22;58645;43.068;25.610;2023-07-29T05:08:28;19.20;94.70
70986;DHT22;58645;43.068;25.610;2023-07-29T05:10:54;19.40;93.70
70986;DHT22;58645;43.068;25.610;2023-07-29T05:13:21;19.60;93.30
70986;DHT22;58645;43.068;25.610;2023-07-29T05:15:48;19.70;92.20
70986;DHT22;58645;43.068;25.610;2023-07-29T05:18:15;19.90;90.80
70986;DHT22;58645;43.068;25.610;2023-07-29T05:20:40;20.00;89.80
70986;DHT22;58645;43.068;25.610;2023-07-29T05:23:06;20.30;89.00
70986;DHT22;58645;43.068;25.610;2023-07-29T05:25:32;20.50;88.10
70986;DHT22;58645;43.068;25.610;2023-07-29T05:28:03;20.60;87.00
70986;DHT22;58645;43.068;25.610;2023-07-29T05:30:29;20.80;85.60
70986;DHT22;58645;43.068;25.610;2023-07-29T05:33:03;21.00;84.90
70986;DHT22;58645;43.068;25.610;2023-07-29T05:35:30;21.10;83.90
70986;DHT22;58645;43.068;25.610;2023-07-29T05:37:55;21.30;81.70
70986;DHT22;58645;43.068;25.610;2023-07-29T05:40:21;21.40;81.10
70986;DHT22;58645;43.068;25.610;2023-07-29T05:42:47;21.80;80.20
70986;DHT22;58645;43.068;25.610;2023-07-29T05:45:13;22.00;79.20
70986;DHT22;58645;43.068;25.610;2023-07-29T05:47:39;22.20;76.30
70986;DHT22;58645;43.068;25.610;2023-07-29T05:50:05;22.30;75.70
70986;DHT22;58645;43.068;25.610;2023-07-29T05:52:32;22.50;75.60
70986;DHT22;58645;43.068;25.610;2023-07-29T05:54:57;22.60;73.40
70986;DHT22;58645;43.068;25.610;2023-07-29T05:57:23;22.70;73.10
70986;DHT22;58645;43.068;25.610;2023-07-29T05:59:49;22.90;74.40
70986;DHT22;58645;43.068;25.610;2023-07-29T06:02:14;23.40;72.50
70986;DHT22;58645;43.068;25.610;2023-07-29T06:04:40;23.60;70.50
70986;DHT22;58645;43.068;25.610;2023-07-29T06:07:06;24.00;69.10
70986;DHT22;58645;43.068;25.610;2023-07-29T06:09:32;24.20;65.80
70986;DHT22;58645;43.068;25.610;2023-07-29T06:11:57;24.80;64.90
70986;DHT22;58645;43.068;25.610;2023-07-29T06:14:23;25.60;62.90
70986;DHT22;58645;43.068;25.610;2023-07-29T06:16:49;26.30;60.00
70986;DHT22;58645;43.068;25.610;2023-07-29T06:19:14;26.70;57.70
70986;DHT22;58645;43.068;25.610;2023-07-29T06:21:40;27.20;57.10
70986;DHT22;58645;43.068;25.610;2023-07-29T06:24:06;27.80;55.60
70986;DHT22;58645;43.068;25.610;2023-07-29T06:26:31;28.20;54.60
70986;DHT22;58645;43.068;25.610;2023-07-29T06:28:57;28.40;53.20
70986;DHT22;58645;43.068;25.610;2023-07-29T06:31:23;28.80;52.60
70986;DHT22;58645;43.068;25.610;2023-07-29T06:33:48;29.20;50.60
70986;DHT22;58645;43.068;25.610;2023-07-29T06:36:14;29.60;49.70
70986;DHT22;58645;43.068;25.610;2023-07-29T06:38:40;29.80;48.90
70986;DHT22;58645;43.068;25.610;2023-07-29T06:41:06;30.10;48.30
70986;DHT22;58645;43.068;25.610;2023-07-29T06:43:32;30.50;48.00
70986;DHT22;58645;43.068;25.610;2023-07-29T06:45:58;30.70;44.70
70986;DHT22;58645;43.068;25.610;2023-07-29T06:48:23;31.00;45.20
70986;DHT22;58645;43.068;25.610;2023-07-29T06:50:49;30.80;44.00
70986;DHT22;58645;43.068;25.610;2023-07-29T06:53:20;30.80;43.70
70986;DHT22;58645;43.068;25.610;2023-07-29T06:55:46;30.70;43.40
70986;DHT22;58645;43.068;25.610;2023-07-29T06:58:12;30.80;44.30
70986;DHT22;58645;43.068;25.610;2023-07-29T07:00:38;31.00;43.90
70986;DHT22;58645;43.068;25.610;2023-07-29T07:03:04;31.50;42.70
70986;DHT22;58645;43.068;25.610;2023-07-29T07:05:29;31.60;41.30
70986;DHT22;58645;43.068;25.610;2023-07-29T07:07:55;31.80;41.50
70986;DHT22;58645;43.068;25.610;2023-07-29T07:10:21;32.50;39.60
70986;DHT22;58645;43.068;25.610;2023-07-29T07:12:46;32.80;40.90
70986;DHT22;58645;43.068;25.610;2023-07-29T07:15:13;32.90;39.40
70986;DHT22;58645;43.068;25.610;2023-07-29T07:17:38;33.20;38.20
70986;DHT22;58645;43.068;25.610;2023-07-29T07:20:05;33.10;38.90
70986;DHT22;58645;43.068;25.610;2023-07-29T07:22:31;33.40;38.30
70986;DHT22;58645;43.068;25.610;2023-07-29T07:24:56;33.90;37.00
70986;DHT22;58645;43.068;25.610;2023-07-29T07:27:22;34.10;34.80
70986;DHT22;58645;43.068;25.610;2023-07-29T07:29:48;34.10;32.70
70986;DHT22;58645;43.068;25.610;2023-07-29T07:32:13;34.20;31.60
70986;DHT22;58645;43.068;25.610;2023-07-29T07:34:39;34.10;33.50
70986;DHT22;58645;43.068;25.610;2023-07-29T07:37:05;34.40;33.30
70986;DHT22;58645;43.068;25.610;2023-07-29T07:39:31;34.40;32.10
70986;DHT22;58645;43.068;25.610;2023-07-29T07:41:57;34.50;31.90
70986;DHT22;58645;43.068;25.610;2023-07-29T07:44:23;34.50;32.50
70986;DHT22;58645;43.068;25.610;2023-07-29T07:46:52;34.80;32.40
70986;DHT22;58645;43.068;25.610;2023-07-29T07:49:18;34.70;30.70
70986;DHT22;58645;43.068;25.610;2023-07-29T07:51:44;34.30;32.30
70986;DHT22;58645;43.068;25.610;2023-07-29T07:54:10;34.60;31.60
70986;DHT22;58645;43.068;25.610;2023-07-29T07:56:35;35.20;31.70
70986;DHT22;58645;43.068;25.610;2023-07-29T07:59:01;35.60;29.40
70986;DHT22;58645;43.068;25.610;2023-07-29T08:01:27;35.90;29.20
70986;DHT22;58645;43.068;25.610;2023-07-29T08:03:52;36.00;27.60
70986;DHT22;58645;43.068;25.610;2023-07-29T08:06:18;36.00;28.60
70986;DHT22;58645;43.068;25.610;2023-07-29T08:08:44;36.10;28.00
70986;DHT22;58645;43.068;25.610;2023-07-29T08:11:09;36.10;26.50
70986;DHT22;58645;43.068;25.610;2023-07-29T08:13:35;36.20;26.00
70986;DHT22;58645;43.068;25.610;2023-07-29T08:16:01;36.50;26.90
70986;DHT22;58645;43.068;25.610;2023-07-29T08:18:26;36.60;26.00
70986;DHT22;58645;43.068;25.610;2023-07-29T08:20:56;36.70;26.00
70986;DHT22;58645;43.068;25.610;2023-07-29T08:23:25;36.60;24.70
70986;DHT22;58645;43.068;25.610;2023-07-29T08:25:56;36.80;25.50
70986;DHT22;58645;43.068;25.610;2023-07-29T08:28:30;37.10;25.00
70986;DHT22;58645;43.068;25.610;2023-07-29T08:30:56;37.10;24.90
70986;DHT22;58645;43.068;25.610;2023-07-29T08:33:21;37.20;26.60
70986;DHT22;58645;43.068;25.610;2023-07-29T08:35:47;37.30;26.10
70986;DHT22;58645;43.068;25.610;2023-07-29T08:38:13;37.30;25.50
70986;DHT22;58645;43.068;25.610;2023-07-29T08:40:44;37.50;27.30
70986;DHT22;58645;43.068;25.610;2023-07-29T08:43:11;37.50;25.10
70986;DHT22;58645;43.068;25.610;2023-07-29T08:45:38;37.30;26.20
70986;DHT22;58645;43.068;25.610;2023-07-29T08:48:07;37.50;26.20
70986;DHT22;58645;43.068;25.610;2023-07-29T08:50:37;37.40;25.60
70986;DHT22;58645;43.068;25.610;2023-07-29T08:53:04;37.60;25.10
70986;DHT22;58645;43.068;25.610;2023-07-29T08:55:33;37.90;25.40
70986;DHT22;58645;43.068;25.610;2023-07-29T08:58:00;37.90;25.40
70986;DHT22;58645;43.068;25.610;2023-07-29T09:00:28;38.10;25.80
70986;DHT22;58645;43.068;25.610;2023-07-29T09:02:54;37.80;25.50
70986;DHT22;58645;43.068;25.610;2023-07-29T09:05:21;38.30;26.70
70986;DHT22;58645;43.068;25.610;2023-07-29T09:07:48;38.30;26.30
70986;DHT22;58645;43.068;25.610;2023-07-29T09:10:15;38.30;26.20
70986;DHT22;58645;43.068;25.610;2023-07-29T09:12:42;38.40;26.80
70986;DHT22;58645;43.068;25.610;2023-07-29T09:15:07;38.60;24.80
70986;DHT22;58645;43.068;25.610;2023-07-29T09:17:33;38.30;24.80
70986;DHT22;58645;43.068;25.610;2023-07-29T09:19:59;38.20;24.80
70986;DHT22;58645;43.068;25.610;2023-07-29T09:22:27;38.10;24.80
70986;DHT22;58645;43.068;25.610;2023-07-29T09:24:53;38.20;26.20
70986;DHT22;58645;43.068;25.610;2023-07-29T09:27:29;38.50;26.10
70986;DHT22;58645;43.068;25.610;2023-07-29T09:29:57;38.60;25.70
70986;DHT22;58645;43.068;25.610;2023-07-29T09:32:24;38.80;24.40
70986;DHT22;58645;43.068;25.610;2023-07-29T09:34:51;38.40;24.80
70986;DHT22;58645;43.068;25.610;2023-07-29T09:37:20;38.40;26.50
70986;DHT22;58645;43.068;25.610;2023-07-29T09:39:47;38.50;26.30
70986;DHT22;58645;43.068;25.610;2023-07-29T09:42:21;38.10;27.70
70986;DHT22;58645;43.068;25.610;2023-07-29T09:44:49;38.00;27.60
70986;DHT22;58645;43.068;25.610;2023-07-29T09:47:25;38.30;27.10
70986;DHT22;58645;43.068;25.610;2023-07-29T09:49:52;38.80;27.30
70986;DHT22;58645;43.068;25.610;2023-07-29T09:52:21;38.60;26.90
70986;DHT22;58645;43.068;25.610;2023-07-29T09:54:47;38.30;27.20
70986;DHT22;58645;43.068;25.610;2023-07-29T09:57:18;38.30;25.90
70986;DHT22;58645;43.068;25.610;2023-07-29T09:59:54;38.50;27.50
70986;DHT22;58645;43.068;25.610;2023-07-29T10:02:20;39.00;27.70
70986;DHT22;58645;43.068;25.610;2023-07-29T10:04:47;39.30;26.70
70986;DHT22;58645;43.068;25.610;2023-07-29T10:07:13;39.40;28.90
70986;DHT22;58645;43.068;25.610;2023-07-29T10:09:40;39.40;27.40
70986;DHT22;58645;43.068;25.610;2023-07-29T10:12:06;38.80;26.00
70986;DHT22;58645;43.068;25.610;2023-07-29T10:14:32;39.00;26.60
70986;DHT22;58645;43.068;25.610;2023-07-29T10:16:58;39.20;27.70
70986;DHT22;58645;43.068;25.610;2023-07-29T10:19:25;39.30;26.90
70986;DHT22;58645;43.068;25.610;2023-07-29T10:21:52;39.40;25.30
70986;DHT22;58645;43.068;25.610;2023-07-29T10:24:24;39.60;26.10
70986;DHT22;58645;43.068;25.610;2023-07-29T10:26:59;39.60;25.70
70986;DHT22;58645;43.068;25.610;2023-07-29T10:29:30;39.80;25.90
70986;DHT22;58645;43.068;25.610;2023-07-29T10:31:57;39.10;25.30
70986;DHT22;58645;43.068;25.610;2023-07-29T10:34:26;39.00;25.90
70986;DHT22;58645;43.068;25.610;2023-07-29T10:36:53;38.70;25.00
70986;DHT22;58645;43.068;25.610;2023-07-29T10:39:20;38.80;25.70
70986;DHT22;58645;43.068;25.610;2023-07-29T10:42:00;39.20;25.90
70986;DHT22;58645;43.068;25.610;2023-07-29T10:47:31;39.50;25.20
70986;DHT22;58645;43.068;25.610;2023-07-29T10:49:59;39.10;24.80
70986;DHT22;58645;43.068;25.610;2023-07-29T10:52:43;39.00;26.40
70986;DHT22;58645;43.068;25.610;2023-07-29T10:55:26;39.00;26.60
70986;DHT22;58645;43.068;25.610;2023-07-29T10:57:52;39.10;26.40
70986;DHT22;58645;43.068;25.610;2023-07-29T11:00:20;39.00;26.50
70986;DHT22;58645;43.068;25.610;2023-07-29T11:03:03;38.80;24.40
70986;DHT22;58645;43.068;25.610;2023-07-29T11:05:48;38.50;25.80
70986;DHT22;58645;43.068;25.610;2023-07-29T11:08:28;38.70;27.20
70986;DHT22;58645;43.068;25.610;2023-07-29T11:13:29;38.00;26.00
70986;DHT22;58645;43.068;25.610;2023-07-29T11:15:55;38.30;25.90
70986;DHT22;58645;43.068;25.610;2023-07-29T11:18:27;38.60;26.80
70986;DHT22;58645;43.068;25.610;2023-07-29T11:20:54;38.50;27.10
70986;DHT22;58645;43.068;25.610;2023-07-29T11:23:30;38.60;27.10
70986;DHT22;58645;43.068;25.610;2023-07-29T11:25:57;38.60;25.00
70986;DHT22;58645;43.068;25.610;2023-07-29T11:28:24;38.90;24.40
70986;DHT22;58645;43.068;25.610;2023-07-29T11:30:50;38.10;25.70
70986;DHT22;58645;43.068;25.610;2023-07-29T11:33:21;37.80;26.30
70986;DHT22;58645;43.068;25.610;2023-07-29T11:35:47;37.90;25.90
70986;DHT22;58645;43.068;25.610;2023-07-29T11:38:17;37.70;26.20
70986;DHT22;58645;43.068;25.610;2023-07-29T11:40:56;37.70;26.00
70986;DHT22;58645;43.068;25.610;2023-07-29T11:43:22;38.00;27.10
70986;DHT22;58645;43.068;25.610;2023-07-29T11:45:48;38.10;28.90
70986;DHT22;58645;43.068;25.610;2023-07-29T11:48:13;38.20;25.90
70986;DHT22;58645;43.068;25.610;2023-07-29T11:50:39;37.70;25.50
70986;DHT22;58645;43.068;25.610;2023-07-29T11:53:05;37.80;26.60
70986;DHT22;58645;43.068;25.610;2023-07-29T11:55:31;38.00;26.30
70986;DHT22;58645;43.068;25.610;2023-07-29T11:57:58;38.00;26.00
70986;DHT22;58645;43.068;25.610;2023-07-29T12:00:25;38.00;25.60
70986;DHT22;58645;43.068;25.610;2023-07-29T12:02:51;37.60;25.60
70986;DHT22;58645;43.068;25.610;2023-07-29T12:05:19;37.60;26.00
70986;DHT22;58645;43.068;25.610;2023-07-29T12:07:47;37.90;25.50
70986;DHT22;58645;43.068;25.610;2023-07-29T12:10:13;38.00;26.20
70986;DHT22;58645;43.068;25.610;2023-07-29T12:12:50;38.00;25.70
70986;DHT22;58645;43.068;25.610;2023-07-29T12:15:26;38.00;26.10
70986;DHT22;58645;43.068;25.610;2023-07-29T12:17:54;38.00;24.90
70986;DHT22;58645;43.068;25.610;2023-07-29T12:20:22;37.90;24.60
70986;DHT22;58645;43.068;25.610;2023-07-29T12:22:55;38.00;27.00
70986;DHT22;58645;43.068;25.610;2023-07-29T12:25:22;37.90;24.60
70986;DHT22;58645;43.068;25.610;2023-07-29T12:27:48;37.70;25.00
70986;DHT22;58645;43.068;25.610;2023-07-29T12:30:14;38.00;27.20
70986;DHT22;58645;43.068;25.610;2023-07-29T12:32:45;38.10;26.50
70986;DHT22;58645;43.068;25.610;2023-07-29T12:35:11;38.20;27.20
70986;DHT22;58645;43.068;25.610;2023-07-29T12:37:37;38.50;27.20
70986;DHT22;58645;43.068;25.610;2023-07-29T12:40:04;38.50;24.70
70986;DHT22;58645;43.068;25.610;2023-07-29T12:42:30;38.50;25.80
70986;DHT22;58645;43.068;25.610;2023-07-29T12:44:56;38.50;24.40
70986;DHT22;58645;43.068;25.610;2023-07-29T12:47:21;38.30;26.80
70986;DHT22;58645;43.068;25.610;2023-07-29T12:49:47;38.50;24.90
70986;DHT22;58645;43.068;25.610;2023-07-29T12:52:13;38.30;25.20
70986;DHT22;58645;43.068;25.610;2023-07-29T12:54:39;38.50;25.20
70986;DHT22;58645;43.068;25.610;2023-07-29T12:57:06;37.70;26.50
70986;DHT22;58645;43.068;25.610;2023-07-29T12:59:31;37.50;26.10
70986;DHT22;58645;43.068;25.610;2023-07-29T13:01:57;37.50;26.40
70986;DHT22;58645;43.068;25.610;2023-07-29T13:04:23;37.30;26.60
70986;DHT22;58645;43.068;25.610;2023-07-29T13:06:48;37.20;26.40
70986;DHT22;58645;43.068;25.610;2023-07-29T13:09:14;37.00;27.20
70986;DHT22;58645;43.068;25.610;2023-07-29T13:11:40;37.00;27.70
70986;DHT22;58645;43.068;25.610;2023-07-29T13:14:05;36.50;26.00
70986;DHT22;58645;43.068;25.610;2023-07-29T13:16:31;36.00;27.90
70986;DHT22;58645;43.068;25.610;2023-07-29T13:18:57;36.00;28.40
70986;DHT22;58645;43.068;25.610;2023-07-29T13:21:23;36.00;27.50
70986;DHT22;58645;43.068;25.610;2023-07-29T13:23:49;35.90;27.60
70986;DHT22;58645;43.068;25.610;2023-07-29T13:26:15;35.90;26.70
70986;DHT22;58645;43.068;25.610;2023-07-29T13:28:40;35.50;26.90
70986;DHT22;58645;43.068;25.610;2023-07-29T13:31:06;35.40;28.10
70986;DHT22;58645;43.068;25.610;2023-07-29T13:33:32;35.30;28.10
70986;DHT22;58645;43.068;25.610;2023-07-29T13:36:00;35.50;30.00
70986;DHT22;58645;43.068;25.610;2023-07-29T13:38:27;35.30;28.70
70986;DHT22;58645;43.068;25.610;2023-07-29T13:40:53;35.40;27.90
70986;DHT22;58645;43.068;25.610;2023-07-29T13:43:19;35.20;29.10
70986;DHT22;58645;43.068;25.610;2023-07-29T13:45:45;35.00;28.80
70986;DHT22;58645;43.068;25.610;2023-07-29T13:48:10;34.90;28.60
70986;DHT22;58645;43.068;25.610;2023-07-29T13:50:36;34.70;29.70
70986;DHT22;58645;43.068;25.610;2023-07-29T13:53:02;34.60;29.40
70986;DHT22;58645;43.068;25.610;2023-07-29T13:55:27;34.50;30.40
70986;DHT22;58645;43.068;25.610;2023-07-29T13:57:53;34.50;29.10
70986;DHT22;58645;43.068;25.610;2023-07-29T14:00:19;34.50;29.50
70986;DHT22;58645;43.068;25.610;2023-07-29T14:02:45;34.30;30.10
70986;DHT22;58645;43.068;25.610;2023-07-29T14:05:11;34.30;30.20
70986;DHT22;58645;43.068;25.610;2023-07-29T14:07:37;34.30;29.30
70986;DHT22;58645;43.068;25.610;2023-07-29T14:10:03;34.00;29.50
70986;DHT22;58645;43.068;25.610;2023-07-29T14:12:29;33.70;28.70
70986;DHT22;58645;43.068;25.610;2023-07-29T14:14:55;33.60;29.10
70986;DHT22;58645;43.068;25.610;2023-07-29T14:17:21;33.50;29.20
70986;DHT22;58645;43.068;25.610;2023-07-29T14:19:46;33.50;30.30
70986;DHT22;58645;43.068;25.610;2023-07-29T14:22:12;33.50;30.10
70986;DHT22;58645;43.068;25.610;2023-07-29T14:24:37;33.60;30.40
70986;DHT22;58645;43.068;25.610;2023-07-29T14:27:04;33.70;29.40
70986;DHT22;58645;43.068;25.610;2023-07-29T14:29:29;33.60;29.20
70986;DHT22;58645;43.068;25.610;2023-07-29T14:31:55;33.40;29.10
70986;DHT22;58645;43.068;25.610;2023-07-29T14:34:21;33.30;29.60
70986;DHT22;58645;43.068;25.610;2023-07-29T14:36:46;33.30;30.30
70986;DHT22;58645;43.068;25.610;2023-07-29T14:39:12;33.20;29.70
70986;DHT22;58645;43.068;25.610;2023-07-29T14:41:38;33.10;29.30
70986;DHT22;58645;43.068;25.610;2023-07-29T14:44:03;33.00;29.90
70986;DHT22;58645;43.068;25.610;2023-07-29T14:46:29;33.00;30.10
70986;DHT22;58645;43.068;25.610;2023-07-29T14:48:55;32.80;29.50
70986;DHT22;58645;43.068;25.610;2023-07-29T14:51:21;32.90;30.00
70986;DHT22;58645;43.068;25.610;2023-07-29T14:53:48;32.90;30.20
70986;DHT22;58645;43.068;25.610;2023-07-29T14:56:13;32.80;31.10
70986;DHT22;58645;43.068;25.610;2023-07-29T14:58:43;32.70;32.10
70986;DHT22;58645;43.068;25.610;2023-07-29T15:01:09;32.50;34.50
70986;DHT22;58645;43.068;25.610;2023-07-29T15:03:34;32.40;34.60
70986;DHT22;58645;43.068;25.610;2023-07-29T15:06:00;32.30;35.20
70986;DHT22;58645;43.068;25.610;2023-07-29T15:08:26;32.20;35.30
70986;DHT22;58645;43.068;25.610;2023-07-29T15:10:52;32.10;35.30
70986;DHT22;58645;43.068;25.610;2023-07-29T15:13:19;32.00;35.60
70986;DHT22;58645;43.068;25.610;2023-07-29T15:15:45;32.00;36.00
70986;DHT22;58645;43.068;25.610;2023-07-29T15:18:11;32.00;35.80
70986;DHT22;58645;43.068;25.610;2023-07-29T15:20:37;31.90;35.00
70986;DHT22;58645;43.068;25.610;2023-07-29T15:23:03;31.80;35.10
70986;DHT22;58645;43.068;25.610;2023-07-29T15:25:28;31.80;35.30
70986;DHT22;58645;43.068;25.610;2023-07-29T15:27:54;31.80;35.40